createdAt,value
2022-10-02T00:02:33.816Z,0
2022-10-02T00:08:53.779Z,0
2022-10-02T00:15:16.793Z,0
2022-10-02T00:21:36.777Z,0
2022-10-02T00:27:59.812Z,0
2022-10-02T00:34:19.784Z,0
2022-10-02T00:40:42.745Z,0
2022-10-02T00:47:02.804Z,0
2022-10-02T00:53:25.765Z,0
2022-10-02T00:59:45.774Z,0
2022-10-02T01:06:08.827Z,0
2022-10-02T01:12:28.834Z,0
2022-10-02T01:18:51.907Z,0
2022-10-02T01:25:11.825Z,0
2022-10-02T01:31:34.811Z,0
2022-10-02T01:37:54.759Z,0
2022-10-02T01:44:17.762Z,0
2022-10-02T01:50:37.767Z,0
2022-10-02T01:57:00.797Z,0
2022-10-02T02:03:20.770Z,0
2022-10-02T02:09:43.816Z,0
2022-10-02T02:16:03.823Z,0
2022-10-02T02:22:26.771Z,0
2022-10-02T02:28:46.755Z,0
2022-10-02T02:35:09.810Z,0
2022-10-02T02:41:29.740Z,0
2022-10-02T02:47:52.778Z,0
2022-10-02T02:54:12.762Z,0
2022-10-02T03:00:35.737Z,0
2022-10-02T03:06:55.796Z,0
2022-10-02T03:13:18.741Z,0
2022-10-02T03:36:07.720Z,0
2022-10-02T03:42:27.721Z,0
2022-10-02T03:48:50.817Z,0
2022-10-02T03:55:10.768Z,0
2022-10-02T04:01:33.780Z,0
2022-10-02T04:07:53.767Z,0
2022-10-02T04:14:16.762Z,0
2022-10-02T04:20:36.791Z,0
2022-10-02T04:26:59.727Z,0
2022-10-02T04:33:19.753Z,0
2022-10-02T04:39:46.447Z,0
2022-10-02T04:46:02.779Z,0
2022-10-02T04:52:25.810Z,0
2022-10-02T04:58:45.746Z,0
2022-10-02T05:05:08.747Z,0
2022-10-02T05:11:28.901Z,0
2022-10-02T05:17:51.719Z,0
2022-10-02T05:24:11.766Z,0
2022-10-02T05:30:34.779Z,0
2022-10-02T05:36:54.719Z,0
2022-10-02T05:43:17.766Z,0
2022-10-02T05:49:37.748Z,0
2022-10-02T05:56:00.790Z,0
2022-10-02T06:02:20.782Z,0
2022-10-02T06:08:43.763Z,0
2022-10-02T06:15:03.895Z,0
2022-10-02T06:21:26.777Z,0
2022-10-02T06:27:46.906Z,0
2022-10-02T06:34:09.761Z,5.62
2022-10-02T06:40:29.759Z,0
2022-10-02T06:46:52.832Z,5.62
2022-10-02T06:53:12.734Z,11.25
2022-10-02T06:59:35.776Z,11.25
2022-10-02T07:05:55.802Z,11.25
2022-10-02T07:12:18.754Z,16.88
2022-10-02T07:18:38.778Z,16.88
2022-10-02T07:25:01.771Z,22.5
2022-10-02T07:31:21.805Z,22.5
2022-10-02T07:37:44.807Z,28.12
2022-10-02T07:44:04.759Z,33.75
2022-10-02T07:50:27.786Z,33.75
2022-10-02T07:56:47.737Z,39.38
2022-10-02T08:03:10.813Z,28.12
2022-10-02T08:09:30.823Z,28.12
2022-10-02T08:15:53.738Z,33.75
2022-10-02T08:22:13.826Z,45
2022-10-02T08:28:36.805Z,39.38
2022-10-02T08:34:56.792Z,28.12
2022-10-02T08:58:02.772Z,50.62
2022-10-02T09:04:25.721Z,67.5
2022-10-02T09:10:45.873Z,67.5
2022-10-02T09:17:08.815Z,56.25
2022-10-02T09:23:28.745Z,56.25
2022-10-02T09:29:51.772Z,84.38
2022-10-02T09:36:11.779Z,84.38
2022-10-02T09:42:34.801Z,73.12
2022-10-02T09:48:54.768Z,56.25
2022-10-02T09:55:17.778Z,90
2022-10-02T10:01:37.759Z,73.12
2022-10-02T10:08:00.765Z,50.62
2022-10-02T10:14:20.818Z,56.25
2022-10-02T10:20:43.777Z,67.5
2022-10-02T10:27:07.373Z,67.5
2022-10-02T12:13:40.731Z,56.25
2022-10-02T12:20:03.800Z,84.38
2022-10-02T12:26:23.779Z,101.25
2022-10-02T12:32:46.826Z,67.5
2022-10-02T12:39:06.749Z,73.12
2022-10-02T12:45:29.791Z,67.5
2022-10-02T12:51:49.783Z,90
2022-10-02T12:58:12.738Z,106.88
2022-10-02T13:04:32.788Z,84.38
2022-10-02T13:10:55.759Z,56.25
2022-10-02T13:17:15.780Z,61.88
2022-10-02T13:23:41.810Z,67.5
2022-10-02T13:29:58.794Z,56.25
2022-10-02T13:36:21.811Z,67.5
2022-10-02T13:42:44.753Z,61.88
2022-10-02T13:49:07.775Z,56.25
2022-10-02T13:55:27.769Z,56.25
2022-10-02T14:01:50.736Z,56.25
2022-10-02T14:08:10.856Z,50.62
2022-10-02T14:14:33.746Z,56.25
2022-10-02T14:20:53.855Z,56.25
2022-10-02T14:27:16.773Z,56.25
2022-10-02T14:33:36.755Z,61.88
2022-10-02T14:39:59.821Z,56.25
2022-10-02T14:46:19.857Z,50.62
2022-10-02T14:52:42.791Z,56.25
2022-10-02T14:59:02.788Z,56.25
2022-10-02T15:05:25.770Z,50.62
2022-10-02T15:11:45.792Z,45
2022-10-02T15:18:08.755Z,45
2022-10-02T15:24:28.832Z,33.75
2022-10-02T15:30:51.755Z,33.75
2022-10-02T15:37:11.776Z,33.75
2022-10-02T15:43:34.781Z,22.5
2022-10-02T15:49:54.787Z,28.12
2022-10-02T15:56:17.904Z,33.75
2022-10-02T16:02:37.954Z,22.5
2022-10-02T16:09:00.791Z,16.88
2022-10-02T16:15:20.743Z,16.88
2022-10-02T16:21:43.782Z,16.88
2022-10-02T16:28:03.919Z,16.88
2022-10-02T16:34:26.768Z,11.25
2022-10-02T16:40:46.855Z,5.62
2022-10-02T16:47:09.906Z,0
2022-10-02T16:53:29.786Z,5.62
2022-10-02T16:59:53.050Z,0
2022-10-02T17:06:12.772Z,0
2022-10-02T17:22:41.680Z,0
2022-10-02T17:29:01.765Z,0
2022-10-02T17:35:24.750Z,0
2022-10-02T17:41:44.806Z,0
2022-10-02T17:48:07.752Z,0
2022-10-02T17:54:27.791Z,0
2022-10-02T18:00:50.830Z,0
2022-10-02T18:07:10.761Z,0
2022-10-02T18:13:33.749Z,0
2022-10-02T18:19:53.752Z,0
2022-10-02T18:26:19.180Z,0
2022-10-02T18:32:36.778Z,0
2022-10-02T18:38:59.794Z,0
2022-10-02T18:45:19.738Z,0
2022-10-02T18:51:42.752Z,0
2022-10-02T18:58:02.818Z,0
2022-10-02T19:04:25.791Z,0
2022-10-02T19:10:45.775Z,0
2022-10-02T19:17:08.795Z,0
2022-10-02T19:23:28.734Z,0
2022-10-02T19:29:51.770Z,0
2022-10-02T19:36:11.749Z,0
2022-10-02T19:42:34.783Z,0
2022-10-02T19:48:54.766Z,0
2022-10-02T19:55:17.745Z,0
2022-10-02T20:01:38.114Z,0
2022-10-02T20:08:04.275Z,0
2022-10-02T20:14:20.826Z,0
2022-10-02T20:20:43.750Z,0
2022-10-02T20:27:03.732Z,0
2022-10-02T20:33:26.776Z,0
2022-10-02T20:39:46.723Z,0
2022-10-02T20:46:09.833Z,0
2022-10-02T20:52:29.790Z,0
2022-10-02T20:58:52.733Z,0
2022-10-02T21:05:12.766Z,0
2022-10-02T21:11:35.762Z,0
2022-10-02T21:17:55.737Z,0
2022-10-02T21:24:18.793Z,0
2022-10-02T21:30:38.795Z,0
2022-10-02T21:37:01.793Z,0
2022-10-02T21:43:21.733Z,0
2022-10-02T21:49:44.790Z,0
2022-10-02T21:56:04.800Z,0
2022-10-02T22:20:21.785Z,0
2022-10-02T22:26:41.744Z,0
2022-10-02T22:33:04.828Z,0
2022-10-02T22:39:24.783Z,0
2022-10-02T22:45:47.766Z,0
2022-10-02T22:52:07.769Z,0
2022-10-02T22:58:30.795Z,0
2022-10-02T23:04:50.760Z,0
2022-10-02T23:11:13.765Z,0
2022-10-02T23:17:33.787Z,0
2022-10-02T23:23:56.755Z,0
2022-10-02T23:30:16.835Z,0
2022-10-02T23:36:39.831Z,0
2022-10-02T23:42:59.753Z,0
2022-10-02T23:49:22.832Z,0
2022-10-02T23:55:42.776Z,0
